Terminal Aerodrome Forecast
Issued by NWS

Home | Current Version | Previous Version | Text Only | Print | Product List | Glossary On
Versions: 1 2 3 4 5 6 7 8 9 10 11 12 13 14 15 16 17 18 19 20 21 22 23 24 25 26 27 28 29 30 31 32 33 34 35 36 37 38 39 40
672
FTUS45 KLKN 232337
TAFELY
TAF
KELY 232337Z 2400/2424 36010KT P6SM VCSH OVC050
     FM240500 35006KT P6SM VCFG OVC020
     FM241500 35008KT P6SM SCT035 BKN100
     FM242200 34009KT P6SM VCSH BKN060=

USA.gov is the U.S. government's official web portal to all federal, state and local government web resources and services.